createdAt,value
2023-05-08T00:04:56.237Z,45.44
2023-05-08T00:09:58.576Z,45.70
2023-05-08T00:15:00.926Z,45.58
2023-05-08T00:20:03.732Z,45.49
2023-05-08T00:25:06.279Z,45.28
2023-05-08T00:30:08.862Z,45.41
2023-05-08T00:35:10.694Z,45.28
2023-05-08T00:40:12.995Z,45.25
2023-05-08T00:45:15.143Z,45.33
2023-05-08T00:50:17.705Z,45.42
2023-05-08T00:55:19.937Z,45.51
2023-05-08T01:00:23.477Z,45.33
2023-05-08T01:05:25.604Z,45.41
2023-05-08T01:10:38.704Z,45.19
2023-05-08T01:15:51.477Z,45.51
2023-05-08T01:21:09.121Z,45.42
2023-05-08T01:26:42.558Z,45.30
2023-05-08T01:32:06.371Z,45.42
2023-05-08T01:37:13.392Z,45.25
2023-05-08T01:42:49.898Z,45.38
2023-05-08T01:48:08.627Z,45.24
2023-05-08T01:53:20.537Z,45.24
2023-05-08T01:58:24.784Z,45.12
2023-05-08T02:03:28.101Z,45.07
2023-05-08T02:08:31.373Z,45.27
2023-05-08T02:13:35.292Z,45.15
2023-05-08T02:18:41.253Z,45.21
2023-05-08T02:23:45.677Z,45.24
2023-05-08T02:28:50.067Z,45.12
2023-05-08T02:33:54.145Z,45.01
2023-05-08T02:38:59.195Z,45.17
2023-05-08T02:44:01.539Z,45.09
2023-05-08T02:49:20.907Z,45.25
2023-05-08T02:54:31.963Z,45.12
2023-05-08T02:59:44.866Z,45.02
2023-05-08T03:05:00.032Z,44.82
2023-05-08T03:10:10.995Z,45.07
2023-05-08T03:15:26.755Z,45.03
2023-05-08T03:20:34.234Z,45.17
2023-05-08T03:25:39.193Z,45.01
2023-05-08T03:30:42.159Z,45.03
2023-05-08T03:35:45.520Z,44.72
2023-05-08T03:40:47.886Z,45.03
2023-05-08T03:45:51.388Z,45.00
2023-05-08T03:50:54.061Z,44.83
2023-05-08T03:55:58.113Z,44.98
2023-05-08T04:01:13.073Z,44.91
2023-05-08T04:06:30.710Z,44.74
2023-05-08T04:11:38.021Z,45.00
2023-05-08T04:16:46.207Z,44.74
2023-05-08T04:21:50.581Z,45.17
2023-05-08T04:26:53.257Z,45.12
2023-05-08T04:31:57.529Z,44.81
2023-05-08T04:36:59.698Z,44.94
2023-05-08T04:42:03.984Z,44.87
2023-05-08T04:47:06.191Z,44.67
2023-05-08T04:52:08.250Z,45.19
2023-05-08T04:57:10.151Z,44.98
2023-05-08T05:02:12.028Z,45.12
2023-05-08T05:07:14.119Z,44.92
2023-05-08T05:12:16.136Z,44.79
2023-05-08T05:17:18.119Z,44.83
2023-05-08T05:22:20.001Z,45.03
2023-05-08T05:27:22.078Z,44.84
2023-05-08T05:32:24.033Z,44.96
2023-05-08T05:37:25.994Z,44.67
2023-05-08T05:42:28.040Z,44.98
2023-05-08T05:47:30.306Z,44.92
2023-05-08T05:52:33.585Z,44.85
2023-05-08T05:57:35.567Z,44.86
2023-05-08T06:02:37.853Z,44.87
2023-05-08T06:07:40.208Z,44.96
2023-05-08T06:12:42.550Z,45.29
2023-05-08T06:17:44.516Z,44.87
2023-05-08T06:22:46.747Z,47.36
2023-05-08T06:27:48.953Z,47.24
2023-05-08T06:32:50.987Z,47.19
2023-05-08T06:37:52.982Z,46.95
2023-05-08T06:42:55.293Z,46.79
2023-05-08T06:47:57.303Z,46.89
2023-05-08T06:52:59.395Z,46.60
2023-05-08T06:58:01.567Z,46.59
2023-05-08T07:03:03.619Z,46.56
2023-05-08T07:08:05.668Z,46.04
2023-05-08T07:13:07.601Z,45.79
2023-05-08T07:18:09.819Z,46.18
2023-05-08T07:23:11.959Z,46.20
2023-05-08T07:28:14.188Z,46.10
2023-05-08T07:33:16.354Z,45.79
2023-05-08T07:38:18.699Z,45.71
2023-05-08T07:43:20.578Z,47.25
2023-05-08T07:48:22.404Z,47.66
2023-05-08T07:53:24.327Z,47.47
2023-05-08T07:58:26.507Z,47.69
2023-05-08T08:03:28.484Z,47.38
2023-05-08T08:08:30.622Z,47.33
2023-05-08T08:13:33.332Z,47.52
2023-05-08T08:18:38.773Z,47.42
2023-05-08T08:23:40.735Z,48.01
2023-05-08T08:28:42.597Z,48.49
2023-05-08T08:33:45.198Z,48.81
2023-05-08T08:38:47.504Z,48.49
2023-05-08T08:43:49.484Z,48.78
2023-05-08T08:48:53.501Z,48.76
2023-05-08T08:54:08.206Z,48.54
2023-05-08T08:59:12.649Z,49.83
2023-05-08T09:04:14.799Z,51.36
2023-05-08T09:09:16.803Z,52.34
2023-05-08T09:14:19.396Z,52.47
2023-05-08T09:19:24.949Z,51.97
2023-05-08T09:25:08.065Z,51.82
2023-05-08T09:30:13.042Z,51.34
2023-05-08T09:35:15.366Z,51.41
2023-05-08T09:40:22.573Z,51.70
2023-05-08T09:45:28.809Z,51.31
2023-05-08T09:50:31.913Z,51.59
2023-05-08T09:55:47.920Z,51.38
2023-05-08T10:00:49.942Z,50.93
2023-05-08T10:05:51.909Z,50.66
2023-05-08T10:10:54.068Z,50.96
2023-05-08T10:15:57.245Z,50.83
2023-05-08T10:21:05.790Z,50.48
2023-05-08T10:26:12.847Z,50.48
2023-05-08T10:31:18.702Z,50.36
2023-05-08T10:36:21.655Z,50.11
2023-05-08T10:41:27.233Z,50.42
2023-05-08T10:46:49.343Z,50.40
2023-05-08T10:52:08.104Z,50.02
2023-05-08T10:57:11.334Z,49.96
2023-05-08T11:02:13.582Z,50.05
2023-05-08T11:07:15.727Z,50.10
2023-05-08T11:12:28.272Z,49.60
2023-05-08T11:17:30.699Z,49.79
2023-05-08T11:22:37.312Z,49.85
2023-05-08T11:27:51.266Z,49.86
2023-05-08T11:33:09.751Z,48.85
2023-05-08T11:38:20.231Z,49.06
2023-05-08T11:43:26.575Z,49.54
2023-05-08T11:48:28.705Z,49.31
2023-05-08T11:53:31.765Z,48.55
2023-05-08T11:58:33.763Z,48.47
2023-05-08T12:03:36.170Z,48.19
2023-05-08T12:08:39.844Z,48.02
2023-05-08T12:13:41.996Z,48.42
2023-05-08T12:18:44.432Z,48.45
2023-05-08T12:23:46.850Z,48.13
2023-05-08T12:28:55.944Z,48.54
2023-05-08T12:33:58.701Z,48.07
2023-05-08T12:39:18.406Z,48.61
2023-05-08T12:44:25.055Z,48.34
2023-05-08T12:49:31.050Z,48.06
2023-05-08T12:54:34.573Z,48.35
2023-05-08T12:59:36.681Z,48.26
2023-05-08T13:04:39.110Z,48.27
2023-05-08T13:09:56.956Z,48.12
2023-05-08T13:14:58.939Z,48.02
2023-05-08T13:20:01.627Z,47.93
2023-05-08T13:25:04.802Z,48.11
2023-05-08T13:30:07.473Z,47.81
2023-05-08T13:35:09.530Z,48.03
2023-05-08T13:40:12.353Z,47.92
2023-05-08T13:45:15.253Z,47.95
2023-05-08T13:50:19.857Z,48.04
2023-05-08T13:55:23.304Z,48.51
2023-05-08T14:00:27.960Z,48.30
2023-05-08T14:05:30.516Z,48.82
2023-05-08T14:10:32.668Z,48.13
2023-05-08T14:15:37.341Z,48.17
2023-05-08T14:20:39.933Z,48.09
2023-05-08T14:25:41.885Z,48.11
2023-05-08T14:30:43.946Z,47.96
2023-05-08T14:35:48.472Z,48.04
2023-05-08T14:40:51.580Z,47.75
2023-05-08T14:45:54.299Z,47.99
2023-05-08T14:51:01.838Z,47.49
2023-05-08T14:56:04.340Z,47.59
2023-05-08T15:01:07.163Z,47.83
2023-05-08T15:06:09.540Z,47.52
2023-05-08T15:11:11.538Z,47.46
2023-05-08T15:16:13.539Z,47.52
2023-05-08T15:21:15.757Z,47.28
2023-05-08T15:26:17.807Z,46.95
2023-05-08T15:31:20.081Z,47.23
2023-05-08T15:36:22.094Z,47.27
2023-05-08T15:41:24.263Z,47.10
2023-05-08T15:46:26.429Z,47.22
2023-05-08T15:51:29.262Z,47.23
2023-05-08T15:56:31.175Z,47.16
2023-05-08T16:01:33.466Z,47.81
2023-05-08T16:06:35.583Z,47.40
2023-05-08T16:11:37.823Z,47.98
2023-05-08T16:16:40.476Z,47.79
2023-05-08T16:21:42.520Z,47.25
2023-05-08T16:26:44.579Z,47.43
2023-05-08T16:31:46.457Z,47.42
2023-05-08T16:36:48.499Z,47.22
2023-05-08T16:41:50.562Z,47.12
2023-05-08T16:46:52.784Z,47.27
2023-05-08T16:51:55.424Z,47.08
2023-05-08T16:56:57.569Z,47.02
2023-05-08T17:01:59.785Z,47.01
2023-05-08T17:07:01.796Z,46.99
2023-05-08T17:12:03.817Z,46.99
2023-05-08T17:17:06.538Z,46.68
2023-05-08T17:22:08.660Z,46.59
2023-05-08T17:27:11.050Z,46.84
2023-05-08T17:32:13.440Z,46.74
2023-05-08T17:37:15.641Z,46.90
2023-05-08T17:42:17.752Z,46.60
2023-05-08T17:47:19.900Z,46.45
2023-05-08T17:52:22.101Z,46.56
2023-05-08T17:57:24.278Z,46.44
2023-05-08T18:02:26.438Z,46.30
2023-05-08T18:07:28.711Z,46.54
2023-05-08T18:12:32.300Z,46.43
2023-05-08T18:17:34.488Z,46.46
2023-05-08T18:22:36.856Z,46.28
2023-05-08T18:27:40.126Z,46.32
2023-05-08T18:32:42.410Z,46.88
2023-05-08T18:37:44.554Z,46.74
2023-05-08T18:42:46.851Z,46.78
2023-05-08T18:47:49.407Z,46.46
2023-05-08T18:52:51.704Z,46.59
2023-05-08T18:57:54.520Z,46.39
2023-05-08T19:02:58.470Z,46.54
2023-05-08T19:08:00.709Z,46.37
2023-05-08T19:13:02.920Z,46.20
2023-05-08T19:18:05.494Z,46.35
2023-05-08T19:23:07.849Z,46.18
2023-05-08T19:28:10.145Z,46.36
2023-05-08T19:33:12.296Z,46.37
2023-05-08T19:38:15.194Z,46.26
2023-05-08T19:43:17.620Z,46.33
2023-05-08T19:48:20.469Z,46.17
2023-05-08T19:53:23.580Z,45.90
2023-05-08T19:58:25.537Z,46.09
2023-05-08T20:03:27.849Z,46.60
2023-05-08T20:08:30.086Z,46.36
2023-05-08T20:13:32.202Z,46.36
2023-05-08T20:18:35.764Z,46.42
2023-05-08T20:23:39.956Z,46.24
2023-05-08T20:28:42.009Z,46.18
2023-05-08T20:33:44.112Z,46.33
2023-05-08T20:38:46.066Z,45.98
2023-05-08T20:43:48.338Z,46.05
2023-05-08T20:48:51.562Z,46.29
2023-05-08T20:53:53.671Z,46.12
2023-05-08T20:58:55.757Z,46.23
2023-05-08T21:03:57.812Z,46.28
2023-05-08T21:08:59.791Z,46.60
2023-05-08T21:14:01.806Z,46.17
2023-05-08T21:19:03.738Z,46.23
2023-05-08T21:24:05.897Z,46.23
2023-05-08T21:29:07.911Z,46.11
2023-05-08T21:34:09.944Z,46.13
2023-05-08T21:39:12.104Z,45.88
2023-05-08T21:44:15.825Z,46.02
2023-05-08T21:49:18.004Z,46.25
2023-05-08T21:54:23.508Z,45.76
2023-05-08T21:59:25.487Z,46.06
2023-05-08T22:04:27.670Z,46.12
2023-05-08T22:09:29.662Z,45.93
2023-05-08T22:14:31.730Z,46.12
2023-05-08T22:19:33.604Z,46.17
2023-05-08T22:24:35.827Z,46.15
2023-05-08T22:29:37.973Z,46.06
2023-05-08T22:34:40.062Z,46.10
2023-05-08T22:39:41.962Z,45.95
2023-05-08T22:44:44.646Z,45.84
2023-05-08T22:49:48.489Z,46.25
2023-05-08T22:54:50.707Z,45.77
2023-05-08T22:59:52.658Z,45.76
2023-05-08T23:04:56.199Z,46.07
2023-05-08T23:09:58.277Z,45.82
2023-05-08T23:15:00.692Z,45.99
2023-05-08T23:20:02.781Z,45.78
2023-05-08T23:25:05.306Z,45.92
2023-05-08T23:30:07.925Z,46.07
2023-05-08T23:35:10.232Z,45.81
2023-05-08T23:40:12.597Z,45.75
2023-05-08T23:45:14.825Z,45.91
2023-05-08T23:50:17.103Z,45.85
2023-05-08T23:55:19.129Z,46.00
